Flight Track Log - Related Links

Times and Time Zones

All times are in EDT time to prevent confusion due to time zone crossing. See the UAL4108 flight status page for this flight to view local times or setup timezone preferences in your user account.

Time Position Orientation Groundspeed Altitude Reporting Facility
EDT Latitude Longitude Course Direction KTS MPH feet Rate Location/Type
Mon 06:04:25 AM 35.8664 -78.8139 11° North 153 176 1,500  Level Washington Center
Mon 06:05:32 AM 35.8525 -78.8644 251° West 196 226 3,800 2,194 Climbing Washington Center
Mon 06:06:39 AM 35.9158 -78.8442 15° North 244 281 6,400 1,858 Climbing Washington Center
Mon 06:07:00 AM 36.2045 -78.6528 19° North  Level FlightAware Approximate
Mon 06:07:25 AM 35.9603 -78.8203 24° Northeast 259 298 7,300  Level Washington Center
Mon 06:08:00 AM 36.2896 -78.6201 15° North  Level FlightAware Approximate
Mon 06:09:00 AM 36.3761 -78.5935 11° North  Level FlightAware Approximate
Mon 06:09:25 AM 36.1103 -78.7442 22° Northeast 277 319 10,900  Level Washington Center
Mon 06:10:25 AM 36.2036 -78.6939 23° Northeast 320 368 12,200 1,200 Climbing Washington Center
Mon 06:11:25 AM 36.2861 -78.6506 23° Northeast 340 391 13,300 1,150 Climbing Washington Center
Mon 06:12:25 AM 36.3936 -78.6006 21° North 363 418 14,500 1,050 Climbing Washington Center
Mon 06:13:25 AM 36.4864 -78.5681 16° North 369 425 15,400 1,000 Climbing Washington Center
Mon 06:14:25 AM 36.5894 -78.5331 15° North 379 436 16,500 1,100 Climbing Washington Center
Mon 06:15:25 AM 36.6947 -78.4906 18° North 385 443 17,600 1,000 Climbing Washington Center
Mon 06:16:25 AM 36.7942 -78.4372 23° Northeast 385 443 18,500 1,000 Climbing Washington Center
Mon 06:17:25 AM 36.8897 -78.3575 34° Northeast 390 449 19,600 1,150 Climbing Washington Center
Mon 06:18:25 AM 36.9961 -78.2706 33° Northeast 411 473 20,800 1,150 Climbing Washington Center
Mon 06:19:25 AM 37.0917 -78.1906 34° Northeast 411 473 21,900 1,050 Climbing Washington Center
Mon 06:20:25 AM 37.1789 -78.1203 33° Northeast 411 473 22,900 1,050 Climbing Washington Center
Mon 06:21:25 AM 37.2744 -78.0425 33° Northeast 411 473 24,000 1,100 Climbing Washington Center
Mon 06:22:25 AM 37.3697 -77.9619 34° Northeast 411 473 25,100 1,100 Climbing Washington Center
Mon 06:23:25 AM 37.4653 -77.8814 34° Northeast 411 473 26,200 1,100 Climbing Washington Center
Mon 06:24:25 AM 37.5606 -77.8003 34° Northeast 411 473 27,300 1,100 Climbing Washington Center
Mon 06:25:25 AM 37.6539 -77.7164 35° Northeast 406 467 28,400 850 Climbing Washington Center
Mon 06:26:25 AM 37.7450 -77.6325 36° Northeast 406 467 29,000 300 Climbing Washington Center
Mon 06:27:25 AM 37.8425 -77.5431 36° Northeast 411 473 29,000  Level Washington Center
Mon 06:28:25 AM 37.9461 -77.4508 35° Northeast 433 498 29,000  Level Washington Center
Mon 06:29:25 AM 38.0603 -77.3428 37° Northeast 451 519 29,000  Level Washington Center
Mon 06:30:25 AM 38.1639 -77.2450 37° Northeast 456 525 29,000  Level Washington Center
Mon 06:31:25 AM 38.2611 -77.1597 35° Northeast 461 531 29,000  Level Washington Center
Mon 06:32:25 AM 38.3792 -77.0511 36° Northeast 461 531 29,000  Level Washington Center
Mon 06:33:25 AM 38.4761 -76.9628 35° Northeast 461 531 29,000  Level Washington Center
Mon 06:34:25 AM 38.5814 -76.8639 36° Northeast 461 531 29,000  Level Washington Center
Mon 06:35:25 AM 38.6867 -76.7644 36° Northeast 466 536 29,000  Level Washington Center
Mon 06:36:25 AM 38.7900 -76.6517 40° Northeast 466 536 29,000  Level Washington Center
Mon 06:37:25 AM 38.8889 -76.5383 42° Northeast 477 549 29,000 -400 Level Washington Center
Mon 06:38:25 AM 38.9875 -76.4247 42° Northeast 477 549 28,200 -1,000 Descending Washington Center
Mon 06:39:25 AM 39.0864 -76.3108 42° Northeast 472 543 27,000 -600 Descending Washington Center
Mon 06:40:25 AM 39.1869 -76.1942 42° Northeast 472 543 27,000  Level Washington Center
Mon 06:41:25 AM 39.2856 -76.0769 43° Northeast 472 543 27,000  Level Washington Center
Mon 06:42:25 AM 39.3858 -75.9594 42° Northeast 477 549 27,000 -100 Level Washington Center
Mon 06:43:25 AM 39.4861 -75.8389 43° Northeast 477 549 26,800 -900 Descending Washington Center
Mon 06:44:25 AM 39.5844 -75.7233 42° Northeast 477 549 25,200 -1,950 Descending Washington Center
Mon 06:45:25 AM 39.6781 -75.6103 43° Northeast 472 543 22,900 -2,350 Descending Washington Center
Mon 06:46:25 AM 39.7697 -75.5025 42° Northeast 466 536 20,500 -2,400 Descending Washington Center
Mon 06:47:25 AM 39.8592 -75.3914 44° Northeast 445 512 18,100 -2,350 Descending Washington Center
Mon 06:48:25 AM 39.9444 -75.2911 42° Northeast 429 494 15,800 -2,400 Descending Washington Center
Mon 06:49:25 AM 40.0253 -75.1878 44° Northeast 414 476 13,300 -2,350 Descending Washington Center
Mon 06:50:25 AM 40.1042 -75.0950 42° Northeast 393 452 11,100 -1,286 Descending Washington Center
Mon 06:51:31 AM 40.2000 -74.9833 42° Northeast 346 398 10,600 -857 Descending New York TRACON
Mon 06:52:31 AM 40.2500 -74.9000 52° Northeast 297 342 9,300 -1,650 Descending New York TRACON
Mon 06:53:31 AM 40.3167 -74.8333 37° Northeast 291 335 7,300 -1,684 Descending New York TRACON
Mon 06:54:25 AM 40.3500 -74.7667 57° Northeast 284 327 6,100 -684 Descending New York TRACON
Mon 06:55:25 AM 40.4167 -74.6833 44° Northeast 285 328 6,000 -53 Descending New York TRACON
Mon 06:56:19 AM 40.4667 -74.6500 27° Northeast 276 318 6,000  Level New York TRACON
Mon 06:57:19 AM 40.5500 -74.6333 North 261 300 6,000  Level New York TRACON
Mon 06:58:13 AM 40.6167 -74.6167 11° North 272 313 6,000  Level New York TRACON
Mon 06:59:19 AM 40.7000 -74.5833 17° North 285 328 6,000  Level New York TRACON
Mon 07:00:13 AM 40.7500 -74.5333 37° Northeast 287 330 6,000 -316 Level New York TRACON
Mon 07:01:13 AM 40.8167 -74.4833 30° Northeast 284 327 5,400 -526 Descending New York TRACON
Mon 07:02:07 AM 40.8667 -74.4333 37° Northeast 282 325 5,000 -211 Descending New York TRACON
Mon 07:03:07 AM 40.9333 -74.3667 37° Northeast 286 329 5,000 -100 Level New York TRACON
Mon 07:04:07 AM 40.9500 -74.2667 78° East 295 339 4,800 -500 Descending New York TRACON
Mon 07:05:07 AM 40.9333 -74.1667 102° East 288 331 4,000 -850 Descending New York TRACON
Mon 07:06:07 AM 40.8667 -74.0833 137° Southeast 277 319 3,100 -900 Descending New York TRACON

Login

Don't have an account? Register now (free) for customized features, flight alerts, and more!